sensor_id;sensor_type;location;lat;lon;timestamp;P1;durP1;ratioP1;P2;durP2;ratioP2
56043;SDS011;41912;51.022;3.664;2022-08-19T00:01:41;49.20;;;32.00;;
56043;SDS011;41912;51.022;3.664;2022-08-19T00:04:09;44.80;;;30.02;;
56043;SDS011;41912;51.022;3.664;2022-08-19T00:06:37;54.58;;;31.02;;
56043;SDS011;41912;51.022;3.664;2022-08-19T00:09:05;49.53;;;31.20;;
56043;SDS011;41912;51.022;3.664;2022-08-19T00:11:32;55.00;;;30.85;;
56043;SDS011;41912;51.022;3.664;2022-08-19T00:14:02;41.75;;;28.65;;
56043;SDS011;41912;51.022;3.664;2022-08-19T00:16:29;45.53;;;28.85;;
56043;SDS011;41912;51.022;3.664;2022-08-19T00:18:55;43.28;;;29.90;;
56043;SDS011;41912;51.022;3.664;2022-08-19T00:21:22;53.28;;;30.92;;
56043;SDS011;41912;51.022;3.664;2022-08-19T00:23:51;44.75;;;29.73;;
56043;SDS011;41912;51.022;3.664;2022-08-19T00:26:17;47.13;;;31.02;;
56043;SDS011;41912;51.022;3.664;2022-08-19T00:28:44;45.85;;;29.73;;
56043;SDS011;41912;51.022;3.664;2022-08-19T00:31:10;46.35;;;28.48;;
56043;SDS011;41912;51.022;3.664;2022-08-19T00:33:36;52.13;;;28.88;;
56043;SDS011;41912;51.022;3.664;2022-08-19T00:36:03;41.45;;;28.45;;
56043;SDS011;41912;51.022;3.664;2022-08-19T00:38:31;47.50;;;29.67;;
56043;SDS011;41912;51.022;3.664;2022-08-19T00:40:57;39.03;;;26.17;;
56043;SDS011;41912;51.022;3.664;2022-08-19T00:43:24;43.45;;;26.42;;
56043;SDS011;41912;51.022;3.664;2022-08-19T00:45:52;48.08;;;31.08;;
56043;SDS011;41912;51.022;3.664;2022-08-19T00:48:18;44.65;;;28.63;;
56043;SDS011;41912;51.022;3.664;2022-08-19T00:50:45;42.60;;;27.48;;
56043;SDS011;41912;51.022;3.664;2022-08-19T00:53:14;51.10;;;28.45;;
56043;SDS011;41912;51.022;3.664;2022-08-19T00:55:47;48.22;;;27.92;;
56043;SDS011;41912;51.022;3.664;2022-08-19T00:58:16;39.80;;;26.08;;
56043;SDS011;41912;51.022;3.664;2022-08-19T01:00:44;43.40;;;26.23;;
56043;SDS011;41912;51.022;3.664;2022-08-19T01:03:13;43.85;;;26.33;;
56043;SDS011;41912;51.022;3.664;2022-08-19T01:05:41;37.50;;;25.55;;
56043;SDS011;41912;51.022;3.664;2022-08-19T01:08:08;42.38;;;25.20;;
56043;SDS011;41912;51.022;3.664;2022-08-19T01:10:40;36.55;;;24.13;;
56043;SDS011;41912;51.022;3.664;2022-08-19T01:13:09;43.17;;;23.40;;
56043;SDS011;41912;51.022;3.664;2022-08-19T01:15:40;36.00;;;23.55;;
56043;SDS011;41912;51.022;3.664;2022-08-19T01:18:10;41.45;;;24.92;;
56043;SDS011;41912;51.022;3.664;2022-08-19T01:20:39;42.20;;;24.77;;
56043;SDS011;41912;51.022;3.664;2022-08-19T01:23:06;38.78;;;24.58;;
56043;SDS011;41912;51.022;3.664;2022-08-19T01:25:34;36.45;;;22.90;;
56043;SDS011;41912;51.022;3.664;2022-08-19T01:28:06;38.38;;;23.13;;
56043;SDS011;41912;51.022;3.664;2022-08-19T01:30:33;40.63;;;23.15;;
56043;SDS011;41912;51.022;3.664;2022-08-19T01:33:00;34.60;;;22.50;;
56043;SDS011;41912;51.022;3.664;2022-08-19T01:35:27;36.13;;;21.65;;
56043;SDS011;41912;51.022;3.664;2022-08-19T01:38:00;39.95;;;20.63;;
56043;SDS011;41912;51.022;3.664;2022-08-19T01:40:32;40.17;;;21.23;;
56043;SDS011;41912;51.022;3.664;2022-08-19T01:43:00;36.85;;;21.75;;
56043;SDS011;41912;51.022;3.664;2022-08-19T01:45:27;32.58;;;19.92;;
56043;SDS011;41912;51.022;3.664;2022-08-19T01:47:55;30.10;;;20.67;;
56043;SDS011;41912;51.022;3.664;2022-08-19T01:50:21;32.42;;;20.25;;
56043;SDS011;41912;51.022;3.664;2022-08-19T01:52:47;29.88;;;19.75;;
56043;SDS011;41912;51.022;3.664;2022-08-19T01:55:14;30.95;;;19.17;;
56043;SDS011;41912;51.022;3.664;2022-08-19T01:57:43;32.38;;;19.15;;
56043;SDS011;41912;51.022;3.664;2022-08-19T02:00:12;25.50;;;17.55;;
56043;SDS011;41912;51.022;3.664;2022-08-19T02:02:40;30.55;;;18.13;;
56043;SDS011;41912;51.022;3.664;2022-08-19T02:05:06;28.45;;;17.35;;
56043;SDS011;41912;51.022;3.664;2022-08-19T02:07:34;32.75;;;18.13;;
56043;SDS011;41912;51.022;3.664;2022-08-19T02:10:04;31.38;;;18.13;;
56043;SDS011;41912;51.022;3.664;2022-08-19T02:12:31;30.00;;;17.60;;
56043;SDS011;41912;51.022;3.664;2022-08-19T02:14:56;36.05;;;18.65;;
56043;SDS011;41912;51.022;3.664;2022-08-19T02:17:23;27.75;;;17.45;;
56043;SDS011;41912;51.022;3.664;2022-08-19T02:19:48;30.20;;;17.00;;
56043;SDS011;41912;51.022;3.664;2022-08-19T02:22:15;33.63;;;17.15;;
56043;SDS011;41912;51.022;3.664;2022-08-19T02:24:40;31.73;;;16.85;;
56043;SDS011;41912;51.022;3.664;2022-08-19T02:27:06;31.67;;;16.05;;
56043;SDS011;41912;51.022;3.664;2022-08-19T02:29:31;26.75;;;15.50;;
56043;SDS011;41912;51.022;3.664;2022-08-19T02:31:57;24.23;;;15.45;;
56043;SDS011;41912;51.022;3.664;2022-08-19T02:34:23;30.63;;;16.20;;
56043;SDS011;41912;51.022;3.664;2022-08-19T02:36:50;32.20;;;17.38;;
56043;SDS011;41912;51.022;3.664;2022-08-19T02:39:17;27.83;;;17.58;;
56043;SDS011;41912;51.022;3.664;2022-08-19T02:41:43;27.58;;;17.17;;
56043;SDS011;41912;51.022;3.664;2022-08-19T02:44:09;32.72;;;16.75;;
56043;SDS011;41912;51.022;3.664;2022-08-19T02:46:34;25.83;;;15.63;;
56043;SDS011;41912;51.022;3.664;2022-08-19T02:49:02;27.52;;;17.00;;
56043;SDS011;41912;51.022;3.664;2022-08-19T02:51:35;25.92;;;15.95;;
56043;SDS011;41912;51.022;3.664;2022-08-19T02:54:03;27.92;;;16.70;;
56043;SDS011;41912;51.022;3.664;2022-08-19T02:56:29;28.35;;;16.05;;
56043;SDS011;41912;51.022;3.664;2022-08-19T02:58:56;26.13;;;17.00;;
56043;SDS011;41912;51.022;3.664;2022-08-19T03:01:26;27.70;;;16.40;;
56043;SDS011;41912;51.022;3.664;2022-08-19T03:03:56;28.40;;;15.88;;
56043;SDS011;41912;51.022;3.664;2022-08-19T03:06:24;33.13;;;17.50;;
56043;SDS011;41912;51.022;3.664;2022-08-19T03:08:50;29.75;;;17.20;;
56043;SDS011;41912;51.022;3.664;2022-08-19T03:11:19;32.63;;;19.13;;
56043;SDS011;41912;51.022;3.664;2022-08-19T03:13:49;27.70;;;16.63;;
56043;SDS011;41912;51.022;3.664;2022-08-19T03:16:16;32.85;;;17.27;;
56043;SDS011;41912;51.022;3.664;2022-08-19T03:18:43;30.90;;;17.15;;
56043;SDS011;41912;51.022;3.664;2022-08-19T03:21:08;34.03;;;18.30;;
56043;SDS011;41912;51.022;3.664;2022-08-19T03:23:34;38.67;;;18.95;;
56043;SDS011;41912;51.022;3.664;2022-08-19T03:26:04;29.63;;;17.00;;
56043;SDS011;41912;51.022;3.664;2022-08-19T03:28:31;30.63;;;17.83;;
56043;SDS011;41912;51.022;3.664;2022-08-19T03:30:59;32.97;;;16.83;;
56043;SDS011;41912;51.022;3.664;2022-08-19T03:33:27;26.00;;;16.58;;
56043;SDS011;41912;51.022;3.664;2022-08-19T03:36:01;28.55;;;17.00;;
56043;SDS011;41912;51.022;3.664;2022-08-19T03:38:39;34.72;;;17.17;;
56043;SDS011;41912;51.022;3.664;2022-08-19T03:41:11;23.13;;;14.82;;
56043;SDS011;41912;51.022;3.664;2022-08-19T03:43:43;28.58;;;16.30;;
56043;SDS011;41912;51.022;3.664;2022-08-19T03:46:17;30.10;;;16.77;;
56043;SDS011;41912;51.022;3.664;2022-08-19T03:48:51;24.42;;;15.70;;
56043;SDS011;41912;51.022;3.664;2022-08-19T03:53:59;24.88;;;15.63;;
56043;SDS011;41912;51.022;3.664;2022-08-19T03:56:26;28.20;;;15.02;;
56043;SDS011;41912;51.022;3.664;2022-08-19T03:58:53;30.13;;;15.82;;
56043;SDS011;41912;51.022;3.664;2022-08-19T04:01:21;30.73;;;15.35;;
56043;SDS011;41912;51.022;3.664;2022-08-19T04:03:48;24.50;;;13.88;;
56043;SDS011;41912;51.022;3.664;2022-08-19T04:06:18;24.92;;;15.43;;
56043;SDS011;41912;51.022;3.664;2022-08-19T04:08:47;26.02;;;14.55;;
56043;SDS011;41912;51.022;3.664;2022-08-19T04:11:20;23.83;;;14.15;;
56043;SDS011;41912;51.022;3.664;2022-08-19T04:13:51;25.35;;;13.27;;
56043;SDS011;41912;51.022;3.664;2022-08-19T04:16:19;21.23;;;13.95;;
56043;SDS011;41912;51.022;3.664;2022-08-19T04:18:53;24.80;;;12.65;;
56043;SDS011;41912;51.022;3.664;2022-08-19T04:21:21;20.55;;;13.70;;
56043;SDS011;41912;51.022;3.664;2022-08-19T04:23:48;23.10;;;14.95;;
56043;SDS011;41912;51.022;3.664;2022-08-19T04:26:15;23.63;;;13.70;;
56043;SDS011;41912;51.022;3.664;2022-08-19T04:28:42;24.92;;;14.65;;
56043;SDS011;41912;51.022;3.664;2022-08-19T04:31:12;22.90;;;12.77;;
56043;SDS011;41912;51.022;3.664;2022-08-19T04:33:44;21.80;;;13.27;;
56043;SDS011;41912;51.022;3.664;2022-08-19T04:36:21;24.58;;;13.90;;
56043;SDS011;41912;51.022;3.664;2022-08-19T04:38:49;24.65;;;13.88;;
56043;SDS011;41912;51.022;3.664;2022-08-19T04:41:17;22.15;;;13.07;;
56043;SDS011;41912;51.022;3.664;2022-08-19T04:44:02;21.33;;;11.85;;
56043;SDS011;41912;51.022;3.664;2022-08-19T04:46:29;21.80;;;12.30;;
56043;SDS011;41912;51.022;3.664;2022-08-19T04:48:57;23.23;;;13.80;;
56043;SDS011;41912;51.022;3.664;2022-08-19T04:51:24;29.05;;;13.63;;
56043;SDS011;41912;51.022;3.664;2022-08-19T04:53:50;24.75;;;12.93;;
56043;SDS011;41912;51.022;3.664;2022-08-19T04:56:17;23.95;;;12.88;;
56043;SDS011;41912;51.022;3.664;2022-08-19T04:58:45;21.02;;;13.27;;
56043;SDS011;41912;51.022;3.664;2022-08-19T05:01:12;22.05;;;12.80;;
56043;SDS011;41912;51.022;3.664;2022-08-19T05:03:41;23.77;;;13.45;;
56043;SDS011;41912;51.022;3.664;2022-08-19T05:06:09;28.33;;;13.13;;
56043;SDS011;41912;51.022;3.664;2022-08-19T05:08:37;20.45;;;11.70;;
56043;SDS011;41912;51.022;3.664;2022-08-19T05:11:11;26.13;;;13.27;;
56043;SDS011;41912;51.022;3.664;2022-08-19T05:13:39;21.10;;;12.65;;
56043;SDS011;41912;51.022;3.664;2022-08-19T05:16:06;19.25;;;12.18;;
56043;SDS011;41912;51.022;3.664;2022-08-19T05:18:31;20.05;;;12.63;;
56043;SDS011;41912;51.022;3.664;2022-08-19T05:21:17;20.67;;;11.77;;
56043;SDS011;41912;51.022;3.664;2022-08-19T05:24:02;22.20;;;12.73;;
56043;SDS011;41912;51.022;3.664;2022-08-19T05:26:33;23.73;;;12.35;;
56043;SDS011;41912;51.022;3.664;2022-08-19T05:28:59;21.77;;;12.95;;
56043;SDS011;41912;51.022;3.664;2022-08-19T05:31:24;22.80;;;12.15;;
56043;SDS011;41912;51.022;3.664;2022-08-19T05:33:50;24.17;;;12.85;;
56043;SDS011;41912;51.022;3.664;2022-08-19T05:36:15;24.40;;;11.35;;
56043;SDS011;41912;51.022;3.664;2022-08-19T05:38:41;23.92;;;11.98;;
56043;SDS011;41912;51.022;3.664;2022-08-19T05:41:10;25.60;;;11.93;;
56043;SDS011;41912;51.022;3.664;2022-08-19T05:43:37;25.20;;;12.30;;
56043;SDS011;41912;51.022;3.664;2022-08-19T05:46:03;20.23;;;10.48;;
56043;SDS011;41912;51.022;3.664;2022-08-19T05:48:31;20.90;;;11.35;;
56043;SDS011;41912;51.022;3.664;2022-08-19T05:51:03;29.92;;;13.75;;
56043;SDS011;41912;51.022;3.664;2022-08-19T05:53:33;21.65;;;12.10;;
56043;SDS011;41912;51.022;3.664;2022-08-19T05:56:03;20.48;;;11.85;;
56043;SDS011;41912;51.022;3.664;2022-08-19T05:58:31;24.92;;;11.45;;
56043;SDS011;41912;51.022;3.664;2022-08-19T06:00:57;21.17;;;11.30;;
56043;SDS011;41912;51.022;3.664;2022-08-19T06:03:29;26.15;;;12.18;;
56043;SDS011;41912;51.022;3.664;2022-08-19T06:05:55;21.70;;;11.80;;
56043;SDS011;41912;51.022;3.664;2022-08-19T06:08:21;22.33;;;12.30;;
56043;SDS011;41912;51.022;3.664;2022-08-19T06:10:47;21.10;;;12.00;;
56043;SDS011;41912;51.022;3.664;2022-08-19T06:13:12;25.58;;;12.20;;
56043;SDS011;41912;51.022;3.664;2022-08-19T06:15:38;21.13;;;11.13;;
56043;SDS011;41912;51.022;3.664;2022-08-19T06:18:06;21.42;;;10.95;;
56043;SDS011;41912;51.022;3.664;2022-08-19T06:20:31;18.33;;;10.10;;
56043;SDS011;41912;51.022;3.664;2022-08-19T06:22:57;21.63;;;9.85;;
56043;SDS011;41912;51.022;3.664;2022-08-19T06:25:23;20.60;;;10.80;;
56043;SDS011;41912;51.022;3.664;2022-08-19T06:27:49;19.02;;;10.57;;
56043;SDS011;41912;51.022;3.664;2022-08-19T06:30:15;18.27;;;11.52;;
56043;SDS011;41912;51.022;3.664;2022-08-19T06:32:40;18.20;;;9.82;;
56043;SDS011;41912;51.022;3.664;2022-08-19T06:35:06;22.65;;;10.27;;
56043;SDS011;41912;51.022;3.664;2022-08-19T06:37:32;18.85;;;10.88;;
56043;SDS011;41912;51.022;3.664;2022-08-19T06:39:58;24.95;;;10.88;;
56043;SDS011;41912;51.022;3.664;2022-08-19T06:42:24;24.02;;;10.38;;
56043;SDS011;41912;51.022;3.664;2022-08-19T06:44:49;24.20;;;10.40;;
56043;SDS011;41912;51.022;3.664;2022-08-19T06:47:16;19.55;;;10.52;;
56043;SDS011;41912;51.022;3.664;2022-08-19T06:49:45;16.52;;;9.93;;
56043;SDS011;41912;51.022;3.664;2022-08-19T06:52:11;17.88;;;9.93;;
56043;SDS011;41912;51.022;3.664;2022-08-19T06:54:38;20.65;;;9.68;;
56043;SDS011;41912;51.022;3.664;2022-08-19T06:57:05;16.67;;;9.13;;
56043;SDS011;41912;51.022;3.664;2022-08-19T06:59:32;15.70;;;8.70;;
56043;SDS011;41912;51.022;3.664;2022-08-19T07:01:59;17.88;;;9.25;;
56043;SDS011;41912;51.022;3.664;2022-08-19T07:04:29;20.77;;;9.85;;
56043;SDS011;41912;51.022;3.664;2022-08-19T07:06:58;19.98;;;9.50;;
56043;SDS011;41912;51.022;3.664;2022-08-19T07:09:31;15.10;;;8.48;;
56043;SDS011;41912;51.022;3.664;2022-08-19T07:11:56;18.58;;;8.57;;
56043;SDS011;41912;51.022;3.664;2022-08-19T07:14:24;17.90;;;9.07;;
56043;SDS011;41912;51.022;3.664;2022-08-19T07:16:52;16.05;;;8.88;;
56043;SDS011;41912;51.022;3.664;2022-08-19T07:19:20;21.98;;;9.73;;
56043;SDS011;41912;51.022;3.664;2022-08-19T07:21:47;15.38;;;8.93;;
56043;SDS011;41912;51.022;3.664;2022-08-19T07:24:17;16.60;;;9.40;;
56043;SDS011;41912;51.022;3.664;2022-08-19T07:26:44;15.30;;;8.48;;
56043;SDS011;41912;51.022;3.664;2022-08-19T07:29:10;11.15;;;8.13;;
56043;SDS011;41912;51.022;3.664;2022-08-19T07:31:37;13.57;;;8.57;;
56043;SDS011;41912;51.022;3.664;2022-08-19T07:34:04;16.48;;;8.80;;
56043;SDS011;41912;51.022;3.664;2022-08-19T07:36:32;14.75;;;9.15;;
56043;SDS011;41912;51.022;3.664;2022-08-19T07:39:00;18.48;;;8.85;;
56043;SDS011;41912;51.022;3.664;2022-08-19T07:41:29;14.85;;;8.65;;
56043;SDS011;41912;51.022;3.664;2022-08-19T07:43:56;14.38;;;7.97;;
56043;SDS011;41912;51.022;3.664;2022-08-19T07:46:23;13.95;;;8.15;;
56043;SDS011;41912;51.022;3.664;2022-08-19T07:48:49;15.68;;;8.73;;
56043;SDS011;41912;51.022;3.664;2022-08-19T07:51:16;17.67;;;8.07;;
56043;SDS011;41912;51.022;3.664;2022-08-19T07:53:44;15.77;;;8.10;;
56043;SDS011;41912;51.022;3.664;2022-08-19T07:56:10;15.00;;;7.82;;
56043;SDS011;41912;51.022;3.664;2022-08-19T07:58:38;13.75;;;8.20;;
56043;SDS011;41912;51.022;3.664;2022-08-19T08:01:06;17.50;;;8.50;;
56043;SDS011;41912;51.022;3.664;2022-08-19T08:03:35;16.88;;;9.13;;
56043;SDS011;41912;51.022;3.664;2022-08-19T08:06:21;14.10;;;8.23;;
56043;SDS011;41912;51.022;3.664;2022-08-19T08:09:06;11.75;;;8.27;;
56043;SDS011;41912;51.022;3.664;2022-08-19T08:14:33;15.82;;;8.25;;
56043;SDS011;41912;51.022;3.664;2022-08-19T08:17:02;11.88;;;7.22;;
56043;SDS011;41912;51.022;3.664;2022-08-19T08:19:29;15.40;;;8.65;;
56043;SDS011;41912;51.022;3.664;2022-08-19T08:21:56;15.65;;;8.52;;
56043;SDS011;41912;51.022;3.664;2022-08-19T08:24:23;16.17;;;9.30;;
56043;SDS011;41912;51.022;3.664;2022-08-19T08:26:49;18.33;;;8.95;;
56043;SDS011;41912;51.022;3.664;2022-08-19T08:29:16;13.75;;;8.75;;
56043;SDS011;41912;51.022;3.664;2022-08-19T08:31:42;14.05;;;9.40;;
56043;SDS011;41912;51.022;3.664;2022-08-19T08:34:09;16.33;;;10.65;;
56043;SDS011;41912;51.022;3.664;2022-08-19T08:36:39;11.38;;;8.80;;
56043;SDS011;41912;51.022;3.664;2022-08-19T08:39:11;19.08;;;9.73;;
56043;SDS011;41912;51.022;3.664;2022-08-19T08:45:10;17.67;;;10.05;;
56043;SDS011;41912;51.022;3.664;2022-08-19T08:47:31;21.40;;;10.68;;
56043;SDS011;41912;51.022;3.664;2022-08-19T08:52:36;12.25;;;8.82;;
56043;SDS011;41912;51.022;3.664;2022-08-19T08:55:11;11.93;;;8.35;;
56043;SDS011;41912;51.022;3.664;2022-08-19T09:00:17;10.98;;;7.40;;
56043;SDS011;41912;51.022;3.664;2022-08-19T09:02:46;11.70;;;8.02;;
56043;SDS011;41912;51.022;3.664;2022-08-19T09:05:12;10.63;;;8.73;;
56043;SDS011;41912;51.022;3.664;2022-08-19T09:07:46;9.95;;;6.72;;
56043;SDS011;41912;51.022;3.664;2022-08-19T09:10:33;12.05;;;6.68;;
56043;SDS011;41912;51.022;3.664;2022-08-19T09:13:26;9.90;;;5.68;;
56043;SDS011;41912;51.022;3.664;2022-08-19T09:18:43;9.02;;;5.13;;
56043;SDS011;41912;51.022;3.664;2022-08-19T09:21:12;11.48;;;5.15;;
56043;SDS011;41912;51.022;3.664;2022-08-19T09:23:39;8.32;;;5.43;;
56043;SDS011;41912;51.022;3.664;2022-08-19T09:26:06;12.13;;;5.20;;
56043;SDS011;41912;51.022;3.664;2022-08-19T09:28:39;8.10;;;5.28;;
56043;SDS011;41912;51.022;3.664;2022-08-19T09:31:08;7.97;;;5.18;;
56043;SDS011;41912;51.022;3.664;2022-08-19T09:33:54;9.68;;;4.20;;
56043;SDS011;41912;51.022;3.664;2022-08-19T09:36:24;7.05;;;3.83;;
56043;SDS011;41912;51.022;3.664;2022-08-19T09:38:52;6.93;;;3.67;;
56043;SDS011;41912;51.022;3.664;2022-08-19T09:41:19;5.97;;;3.65;;
56043;SDS011;41912;51.022;3.664;2022-08-19T09:43:46;4.65;;;3.10;;
56043;SDS011;41912;51.022;3.664;2022-08-19T09:46:16;6.55;;;3.20;;
56043;SDS011;41912;51.022;3.664;2022-08-19T09:48:45;6.20;;;3.97;;
56043;SDS011;41912;51.022;3.664;2022-08-19T09:51:14;6.53;;;3.65;;
56043;SDS011;41912;51.022;3.664;2022-08-19T09:53:41;5.82;;;3.17;;
56043;SDS011;41912;51.022;3.664;2022-08-19T09:56:09;5.50;;;3.50;;
56043;SDS011;41912;51.022;3.664;2022-08-19T09:58:35;9.68;;;3.65;;
56043;SDS011;41912;51.022;3.664;2022-08-19T10:01:01;9.10;;;3.40;;
56043;SDS011;41912;51.022;3.664;2022-08-19T10:03:28;5.00;;;2.67;;
56043;SDS011;41912;51.022;3.664;2022-08-19T10:05:55;2.53;;;2.33;;
56043;SDS011;41912;51.022;3.664;2022-08-19T10:08:24;5.40;;;2.55;;
56043;SDS011;41912;51.022;3.664;2022-08-19T10:10:52;4.05;;;3.08;;
56043;SDS011;41912;51.022;3.664;2022-08-19T10:13:20;6.43;;;3.17;;
56043;SDS011;41912;51.022;3.664;2022-08-19T10:15:55;4.13;;;3.13;;
56043;SDS011;41912;51.022;3.664;2022-08-19T10:18:26;5.68;;;3.53;;
56043;SDS011;41912;51.022;3.664;2022-08-19T10:21:01;8.52;;;3.70;;
56043;SDS011;41912;51.022;3.664;2022-08-19T10:23:33;5.03;;;3.70;;
56043;SDS011;41912;51.022;3.664;2022-08-19T10:26:01;4.20;;;3.70;;
56043;SDS011;41912;51.022;3.664;2022-08-19T10:28:29;8.60;;;4.63;;
56043;SDS011;41912;51.022;3.664;2022-08-19T10:30:54;6.13;;;3.20;;
56043;SDS011;41912;51.022;3.664;2022-08-19T10:33:20;4.75;;;3.88;;
56043;SDS011;41912;51.022;3.664;2022-08-19T10:35:46;8.77;;;4.13;;
56043;SDS011;41912;51.022;3.664;2022-08-19T10:38:12;3.83;;;3.47;;
56043;SDS011;41912;51.022;3.664;2022-08-19T10:40:38;6.68;;;4.63;;
56043;SDS011;41912;51.022;3.664;2022-08-19T10:43:04;6.70;;;4.70;;
56043;SDS011;41912;51.022;3.664;2022-08-19T10:45:30;5.82;;;4.50;;
56043;SDS011;41912;51.022;3.664;2022-08-19T10:47:55;6.60;;;4.60;;
56043;SDS011;41912;51.022;3.664;2022-08-19T10:50:21;5.70;;;4.22;;
56043;SDS011;41912;51.022;3.664;2022-08-19T10:53:06;8.18;;;4.30;;
56043;SDS011;41912;51.022;3.664;2022-08-19T10:55:36;5.97;;;4.40;;
56043;SDS011;41912;51.022;3.664;2022-08-19T10:58:21;7.22;;;4.90;;
56043;SDS011;41912;51.022;3.664;2022-08-19T11:00:52;5.85;;;5.18;;
56043;SDS011;41912;51.022;3.664;2022-08-19T11:03:22;8.73;;;4.50;;
56043;SDS011;41912;51.022;3.664;2022-08-19T11:06:03;5.70;;;3.88;;
56043;SDS011;41912;51.022;3.664;2022-08-19T11:08:31;5.82;;;3.78;;
56043;SDS011;41912;51.022;3.664;2022-08-19T11:11:00;3.53;;;2.80;;
56043;SDS011;41912;51.022;3.664;2022-08-19T11:13:28;4.90;;;2.47;;
56043;SDS011;41912;51.022;3.664;2022-08-19T11:16:01;5.75;;;2.38;;
56043;SDS011;41912;51.022;3.664;2022-08-19T11:18:37;7.57;;;2.22;;
56043;SDS011;41912;51.022;3.664;2022-08-19T11:21:07;5.45;;;2.20;;
56043;SDS011;41912;51.022;3.664;2022-08-19T11:23:34;3.03;;;1.50;;
56043;SDS011;41912;51.022;3.664;2022-08-19T11:25:59;3.53;;;1.85;;
56043;SDS011;41912;51.022;3.664;2022-08-19T11:28:26;5.18;;;1.80;;
56043;SDS011;41912;51.022;3.664;2022-08-19T11:30:51;1.92;;;1.55;;
56043;SDS011;41912;51.022;3.664;2022-08-19T11:33:17;4.43;;;1.55;;
56043;SDS011;41912;51.022;3.664;2022-08-19T11:35:43;3.10;;;1.40;;
56043;SDS011;41912;51.022;3.664;2022-08-19T11:38:09;8.20;;;1.15;;
56043;SDS011;41912;51.022;3.664;2022-08-19T11:40:36;5.70;;;1.20;;
56043;SDS011;41912;51.022;3.664;2022-08-19T11:43:02;3.10;;;1.08;;
56043;SDS011;41912;51.022;3.664;2022-08-19T11:45:29;4.18;;;1.40;;
56043;SDS011;41912;51.022;3.664;2022-08-19T11:47:55;5.95;;;1.10;;
56043;SDS011;41912;51.022;3.664;2022-08-19T11:50:22;1.42;;;1.20;;
56043;SDS011;41912;51.022;3.664;2022-08-19T11:52:48;2.35;;;1.20;;
56043;SDS011;41912;51.022;3.664;2022-08-19T11:55:14;2.80;;;1.10;;
56043;SDS011;41912;51.022;3.664;2022-08-19T11:57:40;4.68;;;1.85;;
56043;SDS011;41912;51.022;3.664;2022-08-19T12:00:08;3.45;;;1.42;;
56043;SDS011;41912;51.022;3.664;2022-08-19T12:02:36;2.80;;;1.30;;
56043;SDS011;41912;51.022;3.664;2022-08-19T12:05:02;2.78;;;1.50;;
56043;SDS011;41912;51.022;3.664;2022-08-19T12:07:28;5.05;;;2.00;;
56043;SDS011;41912;51.022;3.664;2022-08-19T12:09:58;2.95;;;2.03;;
56043;SDS011;41912;51.022;3.664;2022-08-19T12:12:24;2.95;;;2.40;;
56043;SDS011;41912;51.022;3.664;2022-08-19T12:14:49;7.50;;;2.53;;
56043;SDS011;41912;51.022;3.664;2022-08-19T12:17:22;8.45;;;2.55;;
56043;SDS011;41912;51.022;3.664;2022-08-19T12:19:48;4.70;;;2.40;;
56043;SDS011;41912;51.022;3.664;2022-08-19T12:22:13;4.20;;;2.33;;
56043;SDS011;41912;51.022;3.664;2022-08-19T12:24:39;3.50;;;2.75;;
56043;SDS011;41912;51.022;3.664;2022-08-19T12:27:05;3.70;;;2.40;;
56043;SDS011;41912;51.022;3.664;2022-08-19T12:29:30;4.15;;;2.38;;
56043;SDS011;41912;51.022;3.664;2022-08-19T12:31:57;5.93;;;2.40;;
56043;SDS011;41912;51.022;3.664;2022-08-19T12:34:26;3.13;;;1.98;;
56043;SDS011;41912;51.022;3.664;2022-08-19T12:36:55;2.45;;;1.80;;
56043;SDS011;41912;51.022;3.664;2022-08-19T12:39:22;6.55;;;2.08;;
56043;SDS011;41912;51.022;3.664;2022-08-19T12:41:48;2.88;;;1.60;;
56043;SDS011;41912;51.022;3.664;2022-08-19T12:44:14;2.53;;;1.50;;
56043;SDS011;41912;51.022;3.664;2022-08-19T12:46:39;4.95;;;1.65;;
56043;SDS011;41912;51.022;3.664;2022-08-19T12:49:05;2.58;;;1.42;;
56043;SDS011;41912;51.022;3.664;2022-08-19T12:51:31;3.03;;;1.70;;
56043;SDS011;41912;51.022;3.664;2022-08-19T12:53:56;3.13;;;1.40;;
56043;SDS011;41912;51.022;3.664;2022-08-19T12:56:22;3.58;;;1.40;;
56043;SDS011;41912;51.022;3.664;2022-08-19T12:58:48;7.47;;;1.25;;
56043;SDS011;41912;51.022;3.664;2022-08-19T13:01:14;3.63;;;1.23;;
56043;SDS011;41912;51.022;3.664;2022-08-19T13:03:41;2.22;;;1.05;;
56043;SDS011;41912;51.022;3.664;2022-08-19T13:06:08;2.33;;;1.08;;
56043;SDS011;41912;51.022;3.664;2022-08-19T13:08:34;4.20;;;1.30;;
56043;SDS011;41912;51.022;3.664;2022-08-19T13:13:59;32.70;;;4.50;;
56043;SDS011;41912;51.022;3.664;2022-08-19T13:16:26;10.82;;;2.47;;
56043;SDS011;41912;51.022;3.664;2022-08-19T13:18:52;8.27;;;2.55;;
56043;SDS011;41912;51.022;3.664;2022-08-19T13:21:20;14.63;;;2.38;;
56043;SDS011;41912;51.022;3.664;2022-08-19T13:23:48;7.50;;;1.88;;
56043;SDS011;41912;51.022;3.664;2022-08-19T13:26:14;6.28;;;1.52;;
56043;SDS011;41912;51.022;3.664;2022-08-19T13:28:40;3.33;;;1.50;;
56043;SDS011;41912;51.022;3.664;2022-08-19T13:31:28;6.18;;;1.40;;
56043;SDS011;41912;51.022;3.664;2022-08-19T13:34:14;7.65;;;1.02;;
56043;SDS011;41912;51.022;3.664;2022-08-19T13:36:41;4.40;;;1.08;;
56043;SDS011;41912;51.022;3.664;2022-08-19T13:39:07;4.43;;;1.42;;
56043;SDS011;41912;51.022;3.664;2022-08-19T13:41:33;2.58;;;0.80;;
56043;SDS011;41912;51.022;3.664;2022-08-19T13:44:00;3.03;;;0.85;;
56043;SDS011;41912;51.022;3.664;2022-08-19T13:46:26;2.70;;;0.90;;
56043;SDS011;41912;51.022;3.664;2022-08-19T13:48:54;1.73;;;0.70;;
56043;SDS011;41912;51.022;3.664;2022-08-19T13:51:21;2.97;;;0.80;;
56043;SDS011;41912;51.022;3.664;2022-08-19T13:53:47;2.88;;;0.90;;
56043;SDS011;41912;51.022;3.664;2022-08-19T13:56:14;2.65;;;0.90;;
56043;SDS011;41912;51.022;3.664;2022-08-19T13:58:44;1.77;;;0.70;;
56043;SDS011;41912;51.022;3.664;2022-08-19T14:01:10;4.95;;;1.40;;
56043;SDS011;41912;51.022;3.664;2022-08-19T14:03:36;3.38;;;1.30;;
56043;SDS011;41912;51.022;3.664;2022-08-19T14:06:02;3.60;;;1.65;;
56043;SDS011;41912;51.022;3.664;2022-08-19T14:08:28;4.43;;;1.42;;
56043;SDS011;41912;51.022;3.664;2022-08-19T14:10:57;4.35;;;2.13;;
56043;SDS011;41912;51.022;3.664;2022-08-19T14:13:23;2.42;;;1.48;;
56043;SDS011;41912;51.022;3.664;2022-08-19T14:15:49;5.15;;;1.70;;
56043;SDS011;41912;51.022;3.664;2022-08-19T14:18:16;5.80;;;2.10;;
56043;SDS011;41912;51.022;3.664;2022-08-19T14:20:43;3.70;;;1.77;;
56043;SDS011;41912;51.022;3.664;2022-08-19T14:23:09;5.32;;;2.28;;
56043;SDS011;41912;51.022;3.664;2022-08-19T14:25:37;7.30;;;2.40;;
56043;SDS011;41912;51.022;3.664;2022-08-19T14:28:02;4.38;;;1.92;;
56043;SDS011;41912;51.022;3.664;2022-08-19T14:30:32;3.88;;;2.03;;
56043;SDS011;41912;51.022;3.664;2022-08-19T14:32:59;2.85;;;1.83;;
56043;SDS011;41912;51.022;3.664;2022-08-19T14:35:28;4.45;;;2.15;;
56043;SDS011;41912;51.022;3.664;2022-08-19T14:37:58;4.78;;;2.47;;
56043;SDS011;41912;51.022;3.664;2022-08-19T14:40:27;4.25;;;2.03;;
56043;SDS011;41912;51.022;3.664;2022-08-19T14:42:58;6.32;;;3.20;;
56043;SDS011;41912;51.022;3.664;2022-08-19T14:45:27;8.18;;;3.45;;
56043;SDS011;41912;51.022;3.664;2022-08-19T14:47:53;8.88;;;3.33;;
56043;SDS011;41912;51.022;3.664;2022-08-19T14:50:20;7.85;;;2.55;;
56043;SDS011;41912;51.022;3.664;2022-08-19T14:52:46;8.18;;;2.88;;
56043;SDS011;41912;51.022;3.664;2022-08-19T14:55:13;6.35;;;3.00;;
56043;SDS011;41912;51.022;3.664;2022-08-19T14:57:43;8.40;;;3.65;;
56043;SDS011;41912;51.022;3.664;2022-08-19T15:00:10;6.63;;;3.30;;